sensor_id;sensor_type;location;lat;lon;timestamp;P1;durP1;ratioP1;P2;durP2;ratioP2
17662;SDS011;8950;56.892;15.090;2022-08-21T00:01:58;4.50;;;1.88;;
17662;SDS011;8950;56.892;15.090;2022-08-21T00:04:25;4.88;;;1.60;;
17662;SDS011;8950;56.892;15.090;2022-08-21T00:06:52;2.13;;;1.48;;
17662;SDS011;8950;56.892;15.090;2022-08-21T00:09:19;1.60;;;1.48;;
17662;SDS011;8950;56.892;15.090;2022-08-21T00:11:47;3.45;;;1.65;;
17662;SDS011;8950;56.892;15.090;2022-08-21T00:14:13;2.92;;;1.35;;
17662;SDS011;8950;56.892;15.090;2022-08-21T00:16:40;2.60;;;1.65;;
17662;SDS011;8950;56.892;15.090;2022-08-21T00:19:07;5.13;;;1.70;;
17662;SDS011;8950;56.892;15.090;2022-08-21T00:21:34;2.60;;;1.50;;
17662;SDS011;8950;56.892;15.090;2022-08-21T00:24:00;2.97;;;1.50;;
17662;SDS011;8950;56.892;15.090;2022-08-21T00:26:27;1.52;;;1.35;;
17662;SDS011;8950;56.892;15.090;2022-08-21T00:28:55;3.70;;;1.30;;
17662;SDS011;8950;56.892;15.090;2022-08-21T00:31:21;3.70;;;1.70;;
17662;SDS011;8950;56.892;15.090;2022-08-21T00:33:48;3.80;;;1.70;;
17662;SDS011;8950;56.892;15.090;2022-08-21T00:36:14;1.77;;;1.40;;
17662;SDS011;8950;56.892;15.090;2022-08-21T00:38:41;2.75;;;1.50;;
17662;SDS011;8950;56.892;15.090;2022-08-21T00:41:08;2.65;;;1.50;;
17662;SDS011;8950;56.892;15.090;2022-08-21T00:43:36;2.78;;;1.25;;
17662;SDS011;8950;56.892;15.090;2022-08-21T00:46:05;2.42;;;1.48;;
17662;SDS011;8950;56.892;15.090;2022-08-21T00:48:31;2.20;;;1.30;;
17662;SDS011;8950;56.892;15.090;2022-08-21T00:51:00;5.43;;;1.52;;
17662;SDS011;8950;56.892;15.090;2022-08-21T00:53:27;4.10;;;1.67;;
17662;SDS011;8950;56.892;15.090;2022-08-21T00:55:55;2.60;;;1.40;;
17662;SDS011;8950;56.892;15.090;2022-08-21T00:58:22;3.85;;;1.50;;
17662;SDS011;8950;56.892;15.090;2022-08-21T01:00:50;3.53;;;1.60;;
17662;SDS011;8950;56.892;15.090;2022-08-21T01:03:20;2.95;;;1.48;;
17662;SDS011;8950;56.892;15.090;2022-08-21T01:05:47;2.83;;;1.73;;
17662;SDS011;8950;56.892;15.090;2022-08-21T01:08:14;3.97;;;1.60;;
17662;SDS011;8950;56.892;15.090;2022-08-21T01:10:41;2.13;;;1.50;;
17662;SDS011;8950;56.892;15.090;2022-08-21T01:13:09;3.45;;;1.63;;
17662;SDS011;8950;56.892;15.090;2022-08-21T01:15:37;3.10;;;1.50;;
17662;SDS011;8950;56.892;15.090;2022-08-21T01:18:04;2.53;;;1.40;;
17662;SDS011;8950;56.892;15.090;2022-08-21T01:20:33;3.65;;;1.73;;
17662;SDS011;8950;56.892;15.090;2022-08-21T01:23:02;3.03;;;1.40;;
17662;SDS011;8950;56.892;15.090;2022-08-21T01:25:29;2.40;;;1.20;;
17662;SDS011;8950;56.892;15.090;2022-08-21T01:27:55;2.35;;;1.30;;
17662;SDS011;8950;56.892;15.090;2022-08-21T01:30:24;3.08;;;1.60;;
17662;SDS011;8950;56.892;15.090;2022-08-21T01:32:51;3.45;;;1.45;;
17662;SDS011;8950;56.892;15.090;2022-08-21T01:35:19;3.20;;;1.63;;
17662;SDS011;8950;56.892;15.090;2022-08-21T01:37:45;4.18;;;1.70;;
17662;SDS011;8950;56.892;15.090;2022-08-21T01:40:14;2.80;;;1.40;;
17662;SDS011;8950;56.892;15.090;2022-08-21T01:42:42;1.80;;;1.50;;
17662;SDS011;8950;56.892;15.090;2022-08-21T01:45:09;2.38;;;1.40;;
17662;SDS011;8950;56.892;15.090;2022-08-21T01:47:35;3.00;;;1.70;;
17662;SDS011;8950;56.892;15.090;2022-08-21T01:50:03;3.05;;;1.60;;
17662;SDS011;8950;56.892;15.090;2022-08-21T01:52:30;2.65;;;1.40;;
17662;SDS011;8950;56.892;15.090;2022-08-21T01:54:57;2.85;;;1.38;;
17662;SDS011;8950;56.892;15.090;2022-08-21T01:57:24;4.53;;;1.40;;
17662;SDS011;8950;56.892;15.090;2022-08-21T01:59:51;2.85;;;1.60;;
17662;SDS011;8950;56.892;15.090;2022-08-21T02:02:18;2.70;;;1.45;;
17662;SDS011;8950;56.892;15.090;2022-08-21T02:04:44;3.17;;;1.42;;
17662;SDS011;8950;56.892;15.090;2022-08-21T02:07:11;1.83;;;1.60;;
17662;SDS011;8950;56.892;15.090;2022-08-21T02:09:37;2.10;;;1.35;;
17662;SDS011;8950;56.892;15.090;2022-08-21T02:12:07;3.00;;;1.50;;
17662;SDS011;8950;56.892;15.090;2022-08-21T02:14:36;2.03;;;1.40;;
17662;SDS011;8950;56.892;15.090;2022-08-21T02:17:03;2.83;;;1.50;;
17662;SDS011;8950;56.892;15.090;2022-08-21T02:19:29;4.07;;;1.70;;
17662;SDS011;8950;56.892;15.090;2022-08-21T02:21:56;3.22;;;1.52;;
17662;SDS011;8950;56.892;15.090;2022-08-21T02:24:22;4.32;;;1.65;;
17662;SDS011;8950;56.892;15.090;2022-08-21T02:26:49;1.83;;;1.60;;
17662;SDS011;8950;56.892;15.090;2022-08-21T02:29:15;4.53;;;1.67;;
17662;SDS011;8950;56.892;15.090;2022-08-21T02:31:43;4.93;;;1.55;;
17662;SDS011;8950;56.892;15.090;2022-08-21T02:34:09;2.85;;;1.52;;
17662;SDS011;8950;56.892;15.090;2022-08-21T02:36:36;3.20;;;1.67;;
17662;SDS011;8950;56.892;15.090;2022-08-21T02:39:02;2.58;;;1.65;;
17662;SDS011;8950;56.892;15.090;2022-08-21T02:41:29;1.45;;;1.33;;
17662;SDS011;8950;56.892;15.090;2022-08-21T02:43:56;1.67;;;1.50;;
17662;SDS011;8950;56.892;15.090;2022-08-21T02:46:23;3.17;;;1.60;;
17662;SDS011;8950;56.892;15.090;2022-08-21T02:48:51;3.80;;;1.63;;
17662;SDS011;8950;56.892;15.090;2022-08-21T02:51:18;3.22;;;1.63;;
17662;SDS011;8950;56.892;15.090;2022-08-21T02:53:45;2.67;;;1.55;;
17662;SDS011;8950;56.892;15.090;2022-08-21T02:56:13;2.67;;;1.58;;
17662;SDS011;8950;56.892;15.090;2022-08-21T02:58:41;5.38;;;1.70;;
17662;SDS011;8950;56.892;15.090;2022-08-21T03:01:08;2.20;;;1.70;;
17662;SDS011;8950;56.892;15.090;2022-08-21T03:03:35;2.22;;;1.42;;
17662;SDS011;8950;56.892;15.090;2022-08-21T03:06:03;3.15;;;1.60;;
17662;SDS011;8950;56.892;15.090;2022-08-21T03:08:30;4.15;;;1.60;;
17662;SDS011;8950;56.892;15.090;2022-08-21T03:10:56;2.78;;;1.52;;
17662;SDS011;8950;56.892;15.090;2022-08-21T03:13:26;2.25;;;1.45;;
17662;SDS011;8950;56.892;15.090;2022-08-21T03:15:53;3.50;;;1.60;;
17662;SDS011;8950;56.892;15.090;2022-08-21T03:18:22;2.05;;;1.42;;
17662;SDS011;8950;56.892;15.090;2022-08-21T03:20:49;3.40;;;1.60;;
17662;SDS011;8950;56.892;15.090;2022-08-21T03:23:17;2.65;;;1.40;;
17662;SDS011;8950;56.892;15.090;2022-08-21T03:25:44;2.90;;;1.65;;
17662;SDS011;8950;56.892;15.090;2022-08-21T03:28:12;4.63;;;1.70;;
17662;SDS011;8950;56.892;15.090;2022-08-21T03:30:39;3.10;;;1.42;;
17662;SDS011;8950;56.892;15.090;2022-08-21T03:33:05;3.42;;;1.75;;
17662;SDS011;8950;56.892;15.090;2022-08-21T03:35:32;3.88;;;1.60;;
17662;SDS011;8950;56.892;15.090;2022-08-21T03:37:58;5.13;;;1.60;;
17662;SDS011;8950;56.892;15.090;2022-08-21T03:40:26;2.22;;;1.52;;
17662;SDS011;8950;56.892;15.090;2022-08-21T03:42:52;2.97;;;1.63;;
17662;SDS011;8950;56.892;15.090;2022-08-21T03:45:19;5.00;;;1.98;;
17662;SDS011;8950;56.892;15.090;2022-08-21T03:47:55;1.83;;;1.50;;
17662;SDS011;8950;56.892;15.090;2022-08-21T03:50:23;6.63;;;1.92;;
17662;SDS011;8950;56.892;15.090;2022-08-21T03:52:50;2.88;;;1.50;;
17662;SDS011;8950;56.892;15.090;2022-08-21T03:55:16;5.15;;;2.15;;
17662;SDS011;8950;56.892;15.090;2022-08-21T03:57:44;2.90;;;1.55;;
17662;SDS011;8950;56.892;15.090;2022-08-21T04:00:12;3.30;;;1.70;;
17662;SDS011;8950;56.892;15.090;2022-08-21T04:02:39;3.08;;;1.50;;
17662;SDS011;8950;56.892;15.090;2022-08-21T04:05:06;2.22;;;1.70;;
17662;SDS011;8950;56.892;15.090;2022-08-21T04:07:32;2.33;;;1.73;;
17662;SDS011;8950;56.892;15.090;2022-08-21T04:09:59;2.85;;;1.60;;
17662;SDS011;8950;56.892;15.090;2022-08-21T04:12:26;3.33;;;1.60;;
17662;SDS011;8950;56.892;15.090;2022-08-21T04:14:53;3.83;;;1.90;;
17662;SDS011;8950;56.892;15.090;2022-08-21T04:17:20;3.20;;;1.60;;
17662;SDS011;8950;56.892;15.090;2022-08-21T04:19:46;3.50;;;1.63;;
17662;SDS011;8950;56.892;15.090;2022-08-21T04:22:14;2.95;;;1.40;;
17662;SDS011;8950;56.892;15.090;2022-08-21T04:24:40;3.22;;;1.67;;
17662;SDS011;8950;56.892;15.090;2022-08-21T04:27:07;3.72;;;1.52;;
17662;SDS011;8950;56.892;15.090;2022-08-21T04:29:33;3.50;;;1.50;;
17662;SDS011;8950;56.892;15.090;2022-08-21T04:32:02;3.45;;;1.35;;
17662;SDS011;8950;56.892;15.090;2022-08-21T04:34:28;4.50;;;1.55;;
17662;SDS011;8950;56.892;15.090;2022-08-21T04:36:54;3.13;;;1.50;;
17662;SDS011;8950;56.892;15.090;2022-08-21T04:39:21;1.63;;;1.52;;
17662;SDS011;8950;56.892;15.090;2022-08-21T04:41:47;3.13;;;1.77;;
17662;SDS011;8950;56.892;15.090;2022-08-21T04:44:14;3.05;;;1.50;;
17662;SDS011;8950;56.892;15.090;2022-08-21T04:46:40;3.63;;;1.73;;
17662;SDS011;8950;56.892;15.090;2022-08-21T04:49:08;3.25;;;1.50;;
17662;SDS011;8950;56.892;15.090;2022-08-21T04:51:35;2.75;;;1.40;;
17662;SDS011;8950;56.892;15.090;2022-08-21T04:54:05;3.92;;;1.50;;
17662;SDS011;8950;56.892;15.090;2022-08-21T04:56:34;4.40;;;1.42;;
17662;SDS011;8950;56.892;15.090;2022-08-21T04:59:03;2.97;;;1.63;;
17662;SDS011;8950;56.892;15.090;2022-08-21T05:01:31;3.83;;;1.60;;
17662;SDS011;8950;56.892;15.090;2022-08-21T05:04:02;2.22;;;1.60;;
17662;SDS011;8950;56.892;15.090;2022-08-21T05:06:33;3.45;;;1.70;;
17662;SDS011;8950;56.892;15.090;2022-08-21T05:09:02;2.13;;;1.63;;
17662;SDS011;8950;56.892;15.090;2022-08-21T05:11:29;3.30;;;1.60;;
17662;SDS011;8950;56.892;15.090;2022-08-21T05:13:56;2.83;;;1.63;;
17662;SDS011;8950;56.892;15.090;2022-08-21T05:16:23;6.30;;;1.85;;
17662;SDS011;8950;56.892;15.090;2022-08-21T05:18:49;2.85;;;1.55;;
17662;SDS011;8950;56.892;15.090;2022-08-21T05:21:16;1.85;;;1.60;;
17662;SDS011;8950;56.892;15.090;2022-08-21T05:23:44;4.70;;;1.85;;
17662;SDS011;8950;56.892;15.090;2022-08-21T05:26:12;2.60;;;1.40;;
17662;SDS011;8950;56.892;15.090;2022-08-21T05:28:38;2.67;;;1.67;;
17662;SDS011;8950;56.892;15.090;2022-08-21T05:31:05;4.25;;;1.70;;
17662;SDS011;8950;56.892;15.090;2022-08-21T05:33:31;1.60;;;1.50;;
17662;SDS011;8950;56.892;15.090;2022-08-21T05:35:57;2.50;;;1.98;;
17662;SDS011;8950;56.892;15.090;2022-08-21T05:38:24;3.15;;;1.70;;
17662;SDS011;8950;56.892;15.090;2022-08-21T05:40:53;3.63;;;1.70;;
17662;SDS011;8950;56.892;15.090;2022-08-21T05:43:20;3.65;;;1.60;;
17662;SDS011;8950;56.892;15.090;2022-08-21T05:45:47;3.90;;;1.80;;
17662;SDS011;8950;56.892;15.090;2022-08-21T05:48:14;2.63;;;1.70;;
17662;SDS011;8950;56.892;15.090;2022-08-21T05:50:41;4.47;;;1.83;;
17662;SDS011;8950;56.892;15.090;2022-08-21T05:53:08;3.20;;;1.50;;
17662;SDS011;8950;56.892;15.090;2022-08-21T05:55:35;5.30;;;2.03;;
17662;SDS011;8950;56.892;15.090;2022-08-21T05:58:03;3.47;;;2.00;;
17662;SDS011;8950;56.892;15.090;2022-08-21T06:00:30;2.22;;;1.45;;
17662;SDS011;8950;56.892;15.090;2022-08-21T06:02:57;5.65;;;1.90;;
17662;SDS011;8950;56.892;15.090;2022-08-21T06:05:23;2.72;;;1.50;;
17662;SDS011;8950;56.892;15.090;2022-08-21T06:07:50;3.15;;;1.80;;
17662;SDS011;8950;56.892;15.090;2022-08-21T06:10:17;3.00;;;1.52;;
17662;SDS011;8950;56.892;15.090;2022-08-21T06:12:43;1.73;;;1.60;;
17662;SDS011;8950;56.892;15.090;2022-08-21T06:15:11;3.50;;;1.55;;
17662;SDS011;8950;56.892;15.090;2022-08-21T06:17:37;4.22;;;1.73;;
17662;SDS011;8950;56.892;15.090;2022-08-21T06:20:04;4.03;;;1.75;;
17662;SDS011;8950;56.892;15.090;2022-08-21T06:22:31;2.15;;;1.80;;
17662;SDS011;8950;56.892;15.090;2022-08-21T06:24:57;3.03;;;1.65;;
17662;SDS011;8950;56.892;15.090;2022-08-21T06:27:24;3.75;;;1.75;;
17662;SDS011;8950;56.892;15.090;2022-08-21T06:29:50;3.00;;;1.60;;
17662;SDS011;8950;56.892;15.090;2022-08-21T06:32:18;3.25;;;1.60;;
17662;SDS011;8950;56.892;15.090;2022-08-21T06:34:44;2.67;;;1.65;;
17662;SDS011;8950;56.892;15.090;2022-08-21T06:37:11;3.00;;;1.63;;
17662;SDS011;8950;56.892;15.090;2022-08-21T06:39:37;2.47;;;1.42;;
17662;SDS011;8950;56.892;15.090;2022-08-21T06:42:04;2.83;;;1.52;;
17662;SDS011;8950;56.892;15.090;2022-08-21T06:44:31;3.88;;;1.73;;
17662;SDS011;8950;56.892;15.090;2022-08-21T06:46:57;2.92;;;1.48;;
17662;SDS011;8950;56.892;15.090;2022-08-21T06:49:25;2.78;;;1.65;;
17662;SDS011;8950;56.892;15.090;2022-08-21T06:51:51;3.88;;;1.60;;
17662;SDS011;8950;56.892;15.090;2022-08-21T06:54:18;3.75;;;1.50;;
17662;SDS011;8950;56.892;15.090;2022-08-21T06:56:44;2.72;;;1.52;;
17662;SDS011;8950;56.892;15.090;2022-08-21T06:59:12;3.45;;;1.73;;
17662;SDS011;8950;56.892;15.090;2022-08-21T07:01:39;2.42;;;1.80;;
17662;SDS011;8950;56.892;15.090;2022-08-21T07:04:06;3.92;;;1.77;;
17662;SDS011;8950;56.892;15.090;2022-08-21T07:06:34;4.00;;;1.70;;
17662;SDS011;8950;56.892;15.090;2022-08-21T07:09:00;2.63;;;1.50;;
17662;SDS011;8950;56.892;15.090;2022-08-21T07:11:27;4.72;;;1.52;;
17662;SDS011;8950;56.892;15.090;2022-08-21T07:13:54;2.58;;;1.70;;
17662;SDS011;8950;56.892;15.090;2022-08-21T07:16:21;2.92;;;1.50;;
17662;SDS011;8950;56.892;15.090;2022-08-21T07:18:48;2.83;;;1.60;;
17662;SDS011;8950;56.892;15.090;2022-08-21T07:21:15;3.22;;;1.60;;
17662;SDS011;8950;56.892;15.090;2022-08-21T07:23:44;4.00;;;1.90;;
17662;SDS011;8950;56.892;15.090;2022-08-21T07:26:11;3.53;;;1.50;;
17662;SDS011;8950;56.892;15.090;2022-08-21T07:28:37;3.63;;;1.73;;
17662;SDS011;8950;56.892;15.090;2022-08-21T07:31:04;2.95;;;1.75;;
17662;SDS011;8950;56.892;15.090;2022-08-21T07:33:31;2.38;;;1.58;;
17662;SDS011;8950;56.892;15.090;2022-08-21T07:35:58;8.20;;;1.70;;
17662;SDS011;8950;56.892;15.090;2022-08-21T07:38:25;3.30;;;1.60;;
17662;SDS011;8950;56.892;15.090;2022-08-21T07:40:54;4.95;;;1.80;;
17662;SDS011;8950;56.892;15.090;2022-08-21T07:43:21;2.78;;;1.55;;
17662;SDS011;8950;56.892;15.090;2022-08-21T07:45:48;2.40;;;1.90;;
17662;SDS011;8950;56.892;15.090;2022-08-21T07:48:15;2.50;;;1.48;;
17662;SDS011;8950;56.892;15.090;2022-08-21T07:50:42;3.00;;;1.45;;
17662;SDS011;8950;56.892;15.090;2022-08-21T07:53:08;3.55;;;1.80;;
17662;SDS011;8950;56.892;15.090;2022-08-21T07:55:35;4.47;;;1.65;;
17662;SDS011;8950;56.892;15.090;2022-08-21T07:58:02;4.25;;;1.90;;
17662;SDS011;8950;56.892;15.090;2022-08-21T08:00:29;2.90;;;2.00;;
17662;SDS011;8950;56.892;15.090;2022-08-21T08:02:56;3.72;;;1.60;;
17662;SDS011;8950;56.892;15.090;2022-08-21T08:05:23;3.80;;;1.70;;
17662;SDS011;8950;56.892;15.090;2022-08-21T08:07:50;4.03;;;1.90;;
17662;SDS011;8950;56.892;15.090;2022-08-21T08:10:17;3.90;;;1.98;;
17662;SDS011;8950;56.892;15.090;2022-08-21T08:12:44;3.92;;;1.98;;
17662;SDS011;8950;56.892;15.090;2022-08-21T08:15:13;3.92;;;1.80;;
17662;SDS011;8950;56.892;15.090;2022-08-21T08:17:40;3.50;;;1.85;;
17662;SDS011;8950;56.892;15.090;2022-08-21T08:20:08;3.88;;;2.03;;
17662;SDS011;8950;56.892;15.090;2022-08-21T08:22:35;3.38;;;1.70;;
17662;SDS011;8950;56.892;15.090;2022-08-21T08:25:02;3.80;;;1.75;;
17662;SDS011;8950;56.892;15.090;2022-08-21T08:27:30;3.03;;;1.83;;
17662;SDS011;8950;56.892;15.090;2022-08-21T08:29:57;2.85;;;1.60;;
17662;SDS011;8950;56.892;15.090;2022-08-21T08:32:25;3.67;;;1.92;;
17662;SDS011;8950;56.892;15.090;2022-08-21T08:34:51;3.97;;;1.67;;
17662;SDS011;8950;56.892;15.090;2022-08-21T08:37:18;3.22;;;1.80;;
17662;SDS011;8950;56.892;15.090;2022-08-21T08:39:45;3.17;;;1.77;;
17662;SDS011;8950;56.892;15.090;2022-08-21T08:42:12;2.65;;;2.00;;
17662;SDS011;8950;56.892;15.090;2022-08-21T08:44:39;5.45;;;1.70;;
17662;SDS011;8950;56.892;15.090;2022-08-21T08:47:06;2.75;;;1.88;;
17662;SDS011;8950;56.892;15.090;2022-08-21T08:49:36;4.43;;;2.17;;
17662;SDS011;8950;56.892;15.090;2022-08-21T08:52:04;3.35;;;1.70;;
17662;SDS011;8950;56.892;15.090;2022-08-21T08:54:33;3.42;;;1.90;;
17662;SDS011;8950;56.892;15.090;2022-08-21T08:57:02;3.67;;;1.95;;
17662;SDS011;8950;56.892;15.090;2022-08-21T08:59:31;2.85;;;1.55;;
17662;SDS011;8950;56.892;15.090;2022-08-21T09:01:59;3.70;;;2.05;;
17662;SDS011;8950;56.892;15.090;2022-08-21T09:04:26;4.45;;;1.80;;
17662;SDS011;8950;56.892;15.090;2022-08-21T09:06:58;3.00;;;2.20;;
17662;SDS011;8950;56.892;15.090;2022-08-21T09:09:32;3.95;;;1.90;;
17662;SDS011;8950;56.892;15.090;2022-08-21T09:12:02;3.35;;;2.00;;
17662;SDS011;8950;56.892;15.090;2022-08-21T09:14:32;2.47;;;1.70;;
17662;SDS011;8950;56.892;15.090;2022-08-21T09:17:14;3.70;;;2.05;;
17662;SDS011;8950;56.892;15.090;2022-08-21T09:19:46;2.70;;;1.90;;
17662;SDS011;8950;56.892;15.090;2022-08-21T09:22:17;4.07;;;2.05;;
17662;SDS011;8950;56.892;15.090;2022-08-21T09:24:47;2.95;;;1.70;;
17662;SDS011;8950;56.892;15.090;2022-08-21T09:27:16;2.25;;;1.90;;
17662;SDS011;8950;56.892;15.090;2022-08-21T09:29:44;4.47;;;1.90;;
17662;SDS011;8950;56.892;15.090;2022-08-21T09:32:14;2.50;;;1.83;;
17662;SDS011;8950;56.892;15.090;2022-08-21T09:34:42;2.65;;;1.63;;
17662;SDS011;8950;56.892;15.090;2022-08-21T09:37:17;5.45;;;2.03;;
17662;SDS011;8950;56.892;15.090;2022-08-21T09:39:43;2.75;;;1.60;;
17662;SDS011;8950;56.892;15.090;2022-08-21T09:42:10;4.72;;;2.10;;
17662;SDS011;8950;56.892;15.090;2022-08-21T09:44:37;4.07;;;2.25;;
17662;SDS011;8950;56.892;15.090;2022-08-21T09:47:06;2.95;;;1.90;;
17662;SDS011;8950;56.892;15.090;2022-08-21T09:49:33;5.10;;;2.20;;
17662;SDS011;8950;56.892;15.090;2022-08-21T09:52:00;4.20;;;2.00;;
17662;SDS011;8950;56.892;15.090;2022-08-21T09:54:31;3.58;;;2.10;;
17662;SDS011;8950;56.892;15.090;2022-08-21T09:57:00;3.75;;;1.90;;
17662;SDS011;8950;56.892;15.090;2022-08-21T09:59:44;3.20;;;1.90;;
17662;SDS011;8950;56.892;15.090;2022-08-21T10:02:26;4.47;;;2.10;;
17662;SDS011;8950;56.892;15.090;2022-08-21T10:04:53;3.55;;;1.92;;
17662;SDS011;8950;56.892;15.090;2022-08-21T10:07:21;5.03;;;2.08;;
17662;SDS011;8950;56.892;15.090;2022-08-21T10:09:58;3.35;;;1.58;;
17662;SDS011;8950;56.892;15.090;2022-08-21T10:12:25;2.92;;;1.90;;
17662;SDS011;8950;56.892;15.090;2022-08-21T10:14:57;3.67;;;2.00;;
17662;SDS011;8950;56.892;15.090;2022-08-21T10:17:27;4.13;;;2.25;;
17662;SDS011;8950;56.892;15.090;2022-08-21T10:20:00;5.07;;;2.13;;
17662;SDS011;8950;56.892;15.090;2022-08-21T10:22:32;5.43;;;2.20;;
17662;SDS011;8950;56.892;15.090;2022-08-21T10:25:05;2.95;;;1.85;;
17662;SDS011;8950;56.892;15.090;2022-08-21T10:27:34;3.90;;;1.85;;
17662;SDS011;8950;56.892;15.090;2022-08-21T10:30:06;3.58;;;2.08;;
17662;SDS011;8950;56.892;15.090;2022-08-21T10:32:50;3.30;;;2.05;;
17662;SDS011;8950;56.892;15.090;2022-08-21T10:35:19;4.43;;;2.15;;
17662;SDS011;8950;56.892;15.090;2022-08-21T10:37:58;6.43;;;2.78;;
17662;SDS011;8950;56.892;15.090;2022-08-21T10:40:29;2.35;;;2.10;;
17662;SDS011;8950;56.892;15.090;2022-08-21T10:43:02;6.60;;;2.30;;
17662;SDS011;8950;56.892;15.090;2022-08-21T10:45:36;2.42;;;1.80;;
17662;SDS011;8950;56.892;15.090;2022-08-21T10:48:05;3.03;;;2.00;;
17662;SDS011;8950;56.892;15.090;2022-08-21T10:50:35;4.28;;;2.05;;
17662;SDS011;8950;56.892;15.090;2022-08-21T10:53:09;4.18;;;2.05;;
17662;SDS011;8950;56.892;15.090;2022-08-21T10:55:40;5.97;;;2.20;;
17662;SDS011;8950;56.892;15.090;2022-08-21T10:58:08;4.13;;;2.10;;
17662;SDS011;8950;56.892;15.090;2022-08-21T11:00:38;4.70;;;2.20;;
17662;SDS011;8950;56.892;15.090;2022-08-21T11:03:07;5.15;;;2.33;;
17662;SDS011;8950;56.892;15.090;2022-08-21T11:05:38;2.22;;;1.90;;
17662;SDS011;8950;56.892;15.090;2022-08-21T11:08:07;3.53;;;2.17;;
17662;SDS011;8950;56.892;15.090;2022-08-21T11:10:37;3.85;;;2.20;;
17662;SDS011;8950;56.892;15.090;2022-08-21T11:13:13;3.15;;;2.00;;
17662;SDS011;8950;56.892;15.090;2022-08-21T11:15:43;4.07;;;2.15;;
17662;SDS011;8950;56.892;15.090;2022-08-21T11:18:14;2.42;;;1.92;;
17662;SDS011;8950;56.892;15.090;2022-08-21T11:20:43;4.00;;;1.90;;
17662;SDS011;8950;56.892;15.090;2022-08-21T11:23:11;4.32;;;1.98;;
17662;SDS011;8950;56.892;15.090;2022-08-21T11:25:40;2.42;;;1.90;;
17662;SDS011;8950;56.892;15.090;2022-08-21T11:28:09;4.45;;;1.80;;
17662;SDS011;8950;56.892;15.090;2022-08-21T11:30:39;2.83;;;1.95;;
17662;SDS011;8950;56.892;15.090;2022-08-21T11:33:22;3.75;;;1.95;;
17662;SDS011;8950;56.892;15.090;2022-08-21T11:35:53;5.70;;;2.10;;
17662;SDS011;8950;56.892;15.090;2022-08-21T11:38:26;2.30;;;1.80;;
17662;SDS011;8950;56.892;15.090;2022-08-21T11:41:03;3.63;;;1.95;;
17662;SDS011;8950;56.892;15.090;2022-08-21T11:43:36;3.08;;;1.70;;
17662;SDS011;8950;56.892;15.090;2022-08-21T11:46:09;2.63;;;2.00;;
17662;SDS011;8950;56.892;15.090;2022-08-21T11:48:40;2.85;;;2.00;;
17662;SDS011;8950;56.892;15.090;2022-08-21T11:51:12;3.60;;;2.20;;
17662;SDS011;8950;56.892;15.090;2022-08-21T11:53:40;2.30;;;1.60;;
17662;SDS011;8950;56.892;15.090;2022-08-21T11:56:17;2.78;;;1.90;;
17662;SDS011;8950;56.892;15.090;2022-08-21T11:58:47;4.15;;;1.98;;
17662;SDS011;8950;56.892;15.090;2022-08-21T12:01:16;3.17;;;1.90;;
17662;SDS011;8950;56.892;15.090;2022-08-21T12:03:51;3.08;;;1.92;;
17662;SDS011;8950;56.892;15.090;2022-08-21T12:06:27;3.30;;;2.05;;
17662;SDS011;8950;56.892;15.090;2022-08-21T12:08:57;2.10;;;1.90;;
17662;SDS011;8950;56.892;15.090;2022-08-21T12:11:24;3.10;;;2.00;;
17662;SDS011;8950;56.892;15.090;2022-08-21T12:13:54;5.35;;;2.10;;
17662;SDS011;8950;56.892;15.090;2022-08-21T12:16:28;3.03;;;2.03;;
17662;SDS011;8950;56.892;15.090;2022-08-21T12:19:02;3.03;;;2.00;;
17662;SDS011;8950;56.892;15.090;2022-08-21T12:21:29;3.13;;;1.80;;
17662;SDS011;8950;56.892;15.090;2022-08-21T12:23:59;4.55;;;2.20;;
17662;SDS011;8950;56.892;15.090;2022-08-21T12:26:27;4.60;;;2.15;;
17662;SDS011;8950;56.892;15.090;2022-08-21T12:31:50;3.47;;;2.00;;
17662;SDS011;8950;56.892;15.090;2022-08-21T12:34:17;5.93;;;2.10;;
17662;SDS011;8950;56.892;15.090;2022-08-21T12:36:57;4.40;;;2.22;;
17662;SDS011;8950;56.892;15.090;2022-08-21T12:39:25;3.92;;;2.28;;
17662;SDS011;8950;56.892;15.090;2022-08-21T12:41:53;4.90;;;2.05;;
17662;SDS011;8950;56.892;15.090;2022-08-21T12:44:22;4.07;;;2.38;;
17662;SDS011;8950;56.892;15.090;2022-08-21T12:46:54;4.50;;;1.90;;
17662;SDS011;8950;56.892;15.090;2022-08-21T12:49:24;4.10;;;1.90;;
17662;SDS011;8950;56.892;15.090;2022-08-21T12:51:52;5.15;;;2.00;;
17662;SDS011;8950;56.892;15.090;2022-08-21T12:54:24;3.45;;;2.20;;
17662;SDS011;8950;56.892;15.090;2022-08-21T12:57:00;4.50;;;2.00;;
17662;SDS011;8950;56.892;15.090;2022-08-21T12:59:27;3.45;;;2.30;;
17662;SDS011;8950;56.892;15.090;2022-08-21T13:01:56;3.00;;;2.70;;
17662;SDS011;8950;56.892;15.090;2022-08-21T13:04:27;2.95;;;2.10;;
17662;SDS011;8950;56.892;15.090;2022-08-21T13:06:56;3.40;;;2.10;;
17662;SDS011;8950;56.892;15.090;2022-08-21T13:09:26;3.03;;;2.20;;
17662;SDS011;8950;56.892;15.090;2022-08-21T13:11:53;2.65;;;1.80;;
17662;SDS011;8950;56.892;15.090;2022-08-21T13:14:22;3.50;;;2.10;;
17662;SDS011;8950;56.892;15.090;2022-08-21T13:16:52;2.80;;;2.00;;
17662;SDS011;8950;56.892;15.090;2022-08-21T13:19:20;4.43;;;2.40;;
17662;SDS011;8950;56.892;15.090;2022-08-21T13:21:46;4.35;;;2.40;;
17662;SDS011;8950;56.892;15.090;2022-08-21T13:24:14;3.17;;;2.45;;
17662;SDS011;8950;56.892;15.090;2022-08-21T13:26:41;5.95;;;2.33;;
17662;SDS011;8950;56.892;15.090;2022-08-21T13:29:09;4.63;;;2.30;;
17662;SDS011;8950;56.892;15.090;2022-08-21T13:31:36;3.67;;;2.25;;
17662;SDS011;8950;56.892;15.090;2022-08-21T13:34:04;3.50;;;2.10;;
17662;SDS011;8950;56.892;15.090;2022-08-21T13:36:34;3.38;;;2.00;;
17662;SDS011;8950;56.892;15.090;2022-08-21T13:39:02;2.45;;;2.20;;
17662;SDS011;8950;56.892;15.090;2022-08-21T13:41:29;7.55;;;2.75;;
17662;SDS011;8950;56.892;15.090;2022-08-21T13:43:58;3.97;;;2.20;;
17662;SDS011;8950;56.892;15.090;2022-08-21T13:46:26;4.55;;;1.90;;
17662;SDS011;8950;56.892;15.090;2022-08-21T13:48:53;4.15;;;2.00;;
17662;SDS011;8950;56.892;15.090;2022-08-21T13:51:20;4.13;;;2.00;;
17662;SDS011;8950;56.892;15.090;2022-08-21T13:53:50;2.28;;;2.08;;
17662;SDS011;8950;56.892;15.090;2022-08-21T13:56:23;3.08;;;2.28;;
17662;SDS011;8950;56.892;15.090;2022-08-21T13:58:51;3.42;;;2.25;;
17662;SDS011;8950;56.892;15.090;2022-08-21T14:01:18;4.00;;;2.17;;
17662;SDS011;8950;56.892;15.090;2022-08-21T14:03:45;3.22;;;1.92;;
17662;SDS011;8950;56.892;15.090;2022-08-21T14:06:15;5.68;;;2.33;;
17662;SDS011;8950;56.892;15.090;2022-08-21T14:08:47;2.83;;;2.20;;
17662;SDS011;8950;56.892;15.090;2022-08-21T14:11:17;4.05;;;2.38;;
17662;SDS011;8950;56.892;15.090;2022-08-21T14:13:44;2.92;;;2.10;;
17662;SDS011;8950;56.892;15.090;2022-08-21T14:16:13;3.22;;;2.10;;
17662;SDS011;8950;56.892;15.090;2022-08-21T14:18:44;3.67;;;2.13;;
17662;SDS011;8950;56.892;15.090;2022-08-21T14:21:11;4.18;;;2.38;;
17662;SDS011;8950;56.892;15.090;2022-08-21T14:23:38;2.92;;;2.05;;
17662;SDS011;8950;56.892;15.090;2022-08-21T14:26:05;3.22;;;2.30;;
17662;SDS011;8950;56.892;15.090;2022-08-21T14:28:35;3.25;;;2.17;;
17662;SDS011;8950;56.892;15.090;2022-08-21T14:31:11;2.28;;;2.08;;
17662;SDS011;8950;56.892;15.090;2022-08-21T14:33:38;4.43;;;2.20;;
17662;SDS011;8950;56.892;15.090;2022-08-21T14:36:05;3.38;;;2.00;;
17662;SDS011;8950;56.892;15.090;2022-08-21T14:38:31;4.57;;;2.40;;
17662;SDS011;8950;56.892;15.090;2022-08-21T14:41:00;3.17;;;2.08;;
17662;SDS011;8950;56.892;15.090;2022-08-21T14:43:29;3.47;;;2.10;;
17662;SDS011;8950;56.892;15.090;2022-08-21T14:45:58;3.85;;;2.40;;
17662;SDS011;8950;56.892;15.090;2022-08-21T14:48:26;3.80;;;1.98;;
17662;SDS011;8950;56.892;15.090;2022-08-21T14:50:53;2.60;;;2.00;;
17662;SDS011;8950;56.892;15.090;2022-08-21T14:53:19;2.80;;;2.25;;
17662;SDS011;8950;56.892;15.090;2022-08-21T14:55:46;3.45;;;1.90;;
17662;SDS011;8950;56.892;15.090;2022-08-21T14:58:30;3.63;;;2.33;;